sensor_id;sensor_type;location;lat;lon;timestamp;P1;durP1;ratioP1;P2;durP2;ratioP2
80179;SDS011;69505;52.134;5.438;2023-04-24T00:01:01;2.22;;;2.03;;
80179;SDS011;69505;52.134;5.438;2023-04-24T00:03:28;1.70;;;1.45;;
80179;SDS011;69505;52.134;5.438;2023-04-24T00:05:55;2.55;;;2.08;;
80179;SDS011;69505;52.134;5.438;2023-04-24T00:08:22;1.60;;;1.48;;
80179;SDS011;69505;52.134;5.438;2023-04-24T00:10:50;2.42;;;1.30;;
80179;SDS011;69505;52.134;5.438;2023-04-24T00:13:18;2.53;;;2.10;;
80179;SDS011;69505;52.134;5.438;2023-04-24T00:15:44;1.73;;;1.42;;
80179;SDS011;69505;52.134;5.438;2023-04-24T00:18:11;2.10;;;1.45;;
80179;SDS011;69505;52.134;5.438;2023-04-24T00:20:37;3.58;;;1.70;;
80179;SDS011;69505;52.134;5.438;2023-04-24T00:23:04;2.85;;;2.47;;
80179;SDS011;69505;52.134;5.438;2023-04-24T00:25:31;2.30;;;1.98;;
80179;SDS011;69505;52.134;5.438;2023-04-24T00:27:57;2.88;;;2.40;;
80179;SDS011;69505;52.134;5.438;2023-04-24T00:30:24;2.17;;;1.98;;
80179;SDS011;69505;52.134;5.438;2023-04-24T00:32:50;1.80;;;1.67;;
80179;SDS011;69505;52.134;5.438;2023-04-24T00:35:17;2.67;;;2.47;;
80179;SDS011;69505;52.134;5.438;2023-04-24T00:37:45;2.55;;;1.00;;
80179;SDS011;69505;52.134;5.438;2023-04-24T00:40:12;2.30;;;1.98;;
80179;SDS011;69505;52.134;5.438;2023-04-24T00:42:39;2.63;;;2.38;;
80179;SDS011;69505;52.134;5.438;2023-04-24T00:45:06;1.77;;;1.20;;
80179;SDS011;69505;52.134;5.438;2023-04-24T00:47:33;3.60;;;2.45;;
80179;SDS011;69505;52.134;5.438;2023-04-24T00:50:03;2.50;;;2.30;;
80179;SDS011;69505;52.134;5.438;2023-04-24T00:52:32;4.18;;;2.53;;
80179;SDS011;69505;52.134;5.438;2023-04-24T00:54:59;3.10;;;2.53;;
80179;SDS011;69505;52.134;5.438;2023-04-24T00:57:26;2.70;;;2.50;;
80179;SDS011;69505;52.134;5.438;2023-04-24T00:59:52;4.25;;;2.53;;
80179;SDS011;69505;52.134;5.438;2023-04-24T01:02:19;3.00;;;2.50;;
80179;SDS011;69505;52.134;5.438;2023-04-24T01:07:16;3.33;;;2.28;;
80179;SDS011;69505;52.134;5.438;2023-04-24T01:09:47;3.42;;;3.00;;
80179;SDS011;69505;52.134;5.438;2023-04-24T01:12:15;3.88;;;2.83;;
80179;SDS011;69505;52.134;5.438;2023-04-24T01:14:42;3.63;;;3.25;;
80179;SDS011;69505;52.134;5.438;2023-04-24T01:17:09;3.75;;;3.00;;
80179;SDS011;69505;52.134;5.438;2023-04-24T01:19:35;3.58;;;2.50;;
80179;SDS011;69505;52.134;5.438;2023-04-24T01:22:03;4.10;;;3.40;;
80179;SDS011;69505;52.134;5.438;2023-04-24T01:24:36;3.85;;;3.30;;
80179;SDS011;69505;52.134;5.438;2023-04-24T01:27:03;3.63;;;3.10;;
80179;SDS011;69505;52.134;5.438;2023-04-24T01:29:30;4.75;;;2.83;;
80179;SDS011;69505;52.134;5.438;2023-04-24T01:31:57;3.75;;;2.78;;
80179;SDS011;69505;52.134;5.438;2023-04-24T01:34:24;3.13;;;1.52;;
80179;SDS011;69505;52.134;5.438;2023-04-24T01:36:51;3.97;;;3.20;;
80179;SDS011;69505;52.134;5.438;2023-04-24T01:39:18;3.38;;;2.97;;
80179;SDS011;69505;52.134;5.438;2023-04-24T01:41:46;3.72;;;3.20;;
80179;SDS011;69505;52.134;5.438;2023-04-24T01:44:13;3.70;;;3.03;;
80179;SDS011;69505;52.134;5.438;2023-04-24T01:46:40;4.43;;;3.42;;
80179;SDS011;69505;52.134;5.438;2023-04-24T01:49:07;4.55;;;3.75;;
80179;SDS011;69505;52.134;5.438;2023-04-24T01:51:34;3.30;;;3.00;;
80179;SDS011;69505;52.134;5.438;2023-04-24T01:54:00;6.00;;;3.60;;
80179;SDS011;69505;52.134;5.438;2023-04-24T01:56:28;4.18;;;3.63;;
80179;SDS011;69505;52.134;5.438;2023-04-24T01:58:56;3.97;;;3.42;;
80179;SDS011;69505;52.134;5.438;2023-04-24T02:01:23;4.68;;;3.95;;
80179;SDS011;69505;52.134;5.438;2023-04-24T02:03:51;6.50;;;3.90;;
80179;SDS011;69505;52.134;5.438;2023-04-24T02:06:17;5.55;;;3.97;;
80179;SDS011;69505;52.134;5.438;2023-04-24T02:08:44;4.15;;;3.75;;
80179;SDS011;69505;52.134;5.438;2023-04-24T02:11:11;5.28;;;3.53;;
80179;SDS011;69505;52.134;5.438;2023-04-24T02:13:37;4.75;;;3.55;;
80179;SDS011;69505;52.134;5.438;2023-04-24T02:16:04;5.00;;;4.03;;
80179;SDS011;69505;52.134;5.438;2023-04-24T02:18:30;4.60;;;2.78;;
80179;SDS011;69505;52.134;5.438;2023-04-24T02:20:57;4.45;;;3.90;;
80179;SDS011;69505;52.134;5.438;2023-04-24T02:23:23;4.15;;;3.25;;
80179;SDS011;69505;52.134;5.438;2023-04-24T02:25:50;5.47;;;3.88;;
80179;SDS011;69505;52.134;5.438;2023-04-24T02:28:16;7.13;;;3.67;;
80179;SDS011;69505;52.134;5.438;2023-04-24T02:30:43;3.75;;;3.28;;
80179;SDS011;69505;52.134;5.438;2023-04-24T02:33:09;3.38;;;2.90;;
80179;SDS011;69505;52.134;5.438;2023-04-24T02:35:37;3.00;;;2.67;;
80179;SDS011;69505;52.134;5.438;2023-04-24T02:38:04;3.08;;;2.70;;
80179;SDS011;69505;52.134;5.438;2023-04-24T02:40:30;3.45;;;3.15;;
80179;SDS011;69505;52.134;5.438;2023-04-24T02:42:57;3.47;;;3.17;;
80179;SDS011;69505;52.134;5.438;2023-04-24T02:45:24;3.42;;;3.13;;
80179;SDS011;69505;52.134;5.438;2023-04-24T02:47:50;4.72;;;3.58;;
80179;SDS011;69505;52.134;5.438;2023-04-24T02:50:17;5.97;;;3.75;;
80179;SDS011;69505;52.134;5.438;2023-04-24T02:52:44;3.90;;;2.90;;
80179;SDS011;69505;52.134;5.438;2023-04-24T02:55:10;3.40;;;3.08;;
80179;SDS011;69505;52.134;5.438;2023-04-24T02:57:37;4.00;;;3.40;;
80179;SDS011;69505;52.134;5.438;2023-04-24T03:00:04;4.47;;;3.88;;
80179;SDS011;69505;52.134;5.438;2023-04-24T03:02:33;4.10;;;3.60;;
80179;SDS011;69505;52.134;5.438;2023-04-24T03:05:00;4.68;;;3.17;;
80179;SDS011;69505;52.134;5.438;2023-04-24T03:07:28;5.57;;;3.45;;
80179;SDS011;69505;52.134;5.438;2023-04-24T03:09:54;5.57;;;4.10;;
80179;SDS011;69505;52.134;5.438;2023-04-24T03:12:21;4.35;;;3.75;;
80179;SDS011;69505;52.134;5.438;2023-04-24T03:14:50;4.72;;;4.20;;
80179;SDS011;69505;52.134;5.438;2023-04-24T03:17:16;4.40;;;3.45;;
80179;SDS011;69505;52.134;5.438;2023-04-24T03:19:43;4.43;;;3.47;;
80179;SDS011;69505;52.134;5.438;2023-04-24T03:22:10;5.43;;;3.58;;
80179;SDS011;69505;52.134;5.438;2023-04-24T03:24:37;5.10;;;3.00;;
80179;SDS011;69505;52.134;5.438;2023-04-24T03:27:03;4.28;;;3.75;;
80179;SDS011;69505;52.134;5.438;2023-04-24T03:29:30;4.05;;;3.60;;
80179;SDS011;69505;52.134;5.438;2023-04-24T03:31:57;3.95;;;3.13;;
80179;SDS011;69505;52.134;5.438;2023-04-24T03:34:24;5.05;;;3.25;;
80179;SDS011;69505;52.134;5.438;2023-04-24T03:36:50;4.10;;;3.05;;
80179;SDS011;69505;52.134;5.438;2023-04-24T03:39:17;6.80;;;3.45;;
80179;SDS011;69505;52.134;5.438;2023-04-24T03:41:43;4.28;;;3.63;;
80179;SDS011;69505;52.134;5.438;2023-04-24T03:44:10;4.25;;;3.83;;
80179;SDS011;69505;52.134;5.438;2023-04-24T03:46:36;4.25;;;3.03;;
80179;SDS011;69505;52.134;5.438;2023-04-24T03:49:03;3.92;;;3.38;;
80179;SDS011;69505;52.134;5.438;2023-04-24T03:51:29;4.47;;;3.38;;
80179;SDS011;69505;52.134;5.438;2023-04-24T03:53:57;3.90;;;3.08;;
80179;SDS011;69505;52.134;5.438;2023-04-24T03:56:24;5.07;;;3.70;;
80179;SDS011;69505;52.134;5.438;2023-04-24T03:58:50;4.47;;;3.50;;
80179;SDS011;69505;52.134;5.438;2023-04-24T04:01:17;4.50;;;3.53;;
80179;SDS011;69505;52.134;5.438;2023-04-24T04:03:45;4.20;;;3.47;;
80179;SDS011;69505;52.134;5.438;2023-04-24T04:06:11;4.47;;;3.53;;
80179;SDS011;69505;52.134;5.438;2023-04-24T04:08:39;3.95;;;3.42;;
80179;SDS011;69505;52.134;5.438;2023-04-24T04:11:05;6.30;;;2.10;;
80179;SDS011;69505;52.134;5.438;2023-04-24T04:13:32;3.30;;;2.78;;
80179;SDS011;69505;52.134;5.438;2023-04-24T04:15:58;3.85;;;2.40;;
80179;SDS011;69505;52.134;5.438;2023-04-24T04:18:25;2.60;;;2.38;;
80179;SDS011;69505;52.134;5.438;2023-04-24T04:20:52;3.13;;;2.53;;
80179;SDS011;69505;52.134;5.438;2023-04-24T04:23:19;3.17;;;2.60;;
80179;SDS011;69505;52.134;5.438;2023-04-24T04:25:45;3.63;;;2.40;;
80179;SDS011;69505;52.134;5.438;2023-04-24T04:28:13;2.55;;;2.33;;
80179;SDS011;69505;52.134;5.438;2023-04-24T04:30:39;2.80;;;2.55;;
80179;SDS011;69505;52.134;5.438;2023-04-24T04:33:06;3.28;;;2.42;;
80179;SDS011;69505;52.134;5.438;2023-04-24T04:35:34;4.72;;;2.72;;
80179;SDS011;69505;52.134;5.438;2023-04-24T04:38:01;3.63;;;3.03;;
80179;SDS011;69505;52.134;5.438;2023-04-24T04:40:27;4.97;;;3.22;;
80179;SDS011;69505;52.134;5.438;2023-04-24T04:42:54;4.30;;;3.08;;
80179;SDS011;69505;52.134;5.438;2023-04-24T04:45:21;4.25;;;3.30;;
80179;SDS011;69505;52.134;5.438;2023-04-24T04:47:47;3.85;;;3.05;;
80179;SDS011;69505;52.134;5.438;2023-04-24T04:50:14;3.70;;;2.00;;
80179;SDS011;69505;52.134;5.438;2023-04-24T04:52:43;5.25;;;4.13;;
80179;SDS011;69505;52.134;5.438;2023-04-24T04:55:09;6.97;;;4.72;;
80179;SDS011;69505;52.134;5.438;2023-04-24T04:57:36;4.78;;;3.95;;
80179;SDS011;69505;52.134;5.438;2023-04-24T05:00:02;4.30;;;2.75;;
80179;SDS011;69505;52.134;5.438;2023-04-24T05:02:30;6.40;;;4.57;;
80179;SDS011;69505;52.134;5.438;2023-04-24T05:04:57;5.45;;;3.58;;
80179;SDS011;69505;52.134;5.438;2023-04-24T05:07:23;5.45;;;3.90;;
80179;SDS011;69505;52.134;5.438;2023-04-24T05:09:50;6.35;;;4.05;;
80179;SDS011;69505;52.134;5.438;2023-04-24T05:12:18;6.30;;;3.72;;
80179;SDS011;69505;52.134;5.438;2023-04-24T05:14:45;4.40;;;3.60;;
80179;SDS011;69505;52.134;5.438;2023-04-24T05:17:11;6.68;;;4.25;;
80179;SDS011;69505;52.134;5.438;2023-04-24T05:19:38;5.75;;;3.75;;
80179;SDS011;69505;52.134;5.438;2023-04-24T05:22:04;5.07;;;4.00;;
80179;SDS011;69505;52.134;5.438;2023-04-24T05:24:33;4.32;;;3.42;;
80179;SDS011;69505;52.134;5.438;2023-04-24T05:27:00;4.72;;;3.50;;
80179;SDS011;69505;52.134;5.438;2023-04-24T05:29:28;4.18;;;3.22;;
80179;SDS011;69505;52.134;5.438;2023-04-24T05:31:57;4.25;;;3.40;;
80179;SDS011;69505;52.134;5.438;2023-04-24T05:34:24;5.95;;;3.30;;
80179;SDS011;69505;52.134;5.438;2023-04-24T05:36:51;5.65;;;3.50;;
80179;SDS011;69505;52.134;5.438;2023-04-24T05:39:18;4.85;;;3.50;;
80179;SDS011;69505;52.134;5.438;2023-04-24T05:41:45;4.57;;;2.92;;
80179;SDS011;69505;52.134;5.438;2023-04-24T05:44:12;4.65;;;3.30;;
80179;SDS011;69505;52.134;5.438;2023-04-24T05:46:38;4.90;;;3.30;;
80179;SDS011;69505;52.134;5.438;2023-04-24T05:49:05;5.22;;;3.45;;
80179;SDS011;69505;52.134;5.438;2023-04-24T05:51:32;4.53;;;3.60;;
80179;SDS011;69505;52.134;5.438;2023-04-24T05:53:58;4.82;;;3.33;;
80179;SDS011;69505;52.134;5.438;2023-04-24T05:56:25;4.28;;;3.45;;
80179;SDS011;69505;52.134;5.438;2023-04-24T05:58:51;6.35;;;3.13;;
80179;SDS011;69505;52.134;5.438;2023-04-24T06:01:18;4.13;;;3.53;;
80179;SDS011;69505;52.134;5.438;2023-04-24T06:03:45;3.50;;;3.05;;
80179;SDS011;69505;52.134;5.438;2023-04-24T06:06:12;4.70;;;3.40;;
80179;SDS011;69505;52.134;5.438;2023-04-24T06:08:39;2.75;;;2.20;;
80179;SDS011;69505;52.134;5.438;2023-04-24T06:11:05;3.47;;;2.28;;
80179;SDS011;69505;52.134;5.438;2023-04-24T06:13:32;3.13;;;2.25;;
80179;SDS011;69505;52.134;5.438;2023-04-24T06:15:58;3.97;;;2.47;;
80179;SDS011;69505;52.134;5.438;2023-04-24T06:18:24;2.30;;;1.90;;
80179;SDS011;69505;52.134;5.438;2023-04-24T06:20:51;3.42;;;2.28;;
80179;SDS011;69505;52.134;5.438;2023-04-24T06:23:18;2.53;;;1.98;;
80179;SDS011;69505;52.134;5.438;2023-04-24T06:25:44;3.20;;;2.60;;
80179;SDS011;69505;52.134;5.438;2023-04-24T06:28:12;1.90;;;1.65;;
80179;SDS011;69505;52.134;5.438;2023-04-24T06:30:38;2.25;;;1.85;;
80179;SDS011;69505;52.134;5.438;2023-04-24T06:33:05;1.77;;;1.67;;
80179;SDS011;69505;52.134;5.438;2023-04-24T06:35:46;1.60;;;1.38;;
80179;SDS011;69505;52.134;5.438;2023-04-24T06:38:12;2.08;;;1.30;;
80179;SDS011;69505;52.134;5.438;2023-04-24T06:40:39;1.90;;;1.60;;
80179;SDS011;69505;52.134;5.438;2023-04-24T06:43:06;2.17;;;1.90;;
80179;SDS011;69505;52.134;5.438;2023-04-24T06:45:33;2.40;;;1.80;;
80179;SDS011;69505;52.134;5.438;2023-04-24T06:47:59;4.72;;;3.35;;
80179;SDS011;69505;52.134;5.438;2023-04-24T06:50:26;5.57;;;3.70;;
80179;SDS011;69505;52.134;5.438;2023-04-24T06:52:52;6.50;;;4.40;;
80179;SDS011;69505;52.134;5.438;2023-04-24T06:55:19;7.38;;;4.93;;
80179;SDS011;69505;52.134;5.438;2023-04-24T06:57:46;8.52;;;4.63;;
80179;SDS011;69505;52.134;5.438;2023-04-24T07:00:12;8.18;;;4.82;;
80179;SDS011;69505;52.134;5.438;2023-04-24T07:02:39;7.43;;;4.97;;
80179;SDS011;69505;52.134;5.438;2023-04-24T07:05:06;8.02;;;5.32;;
80179;SDS011;69505;52.134;5.438;2023-04-24T07:07:34;9.13;;;5.60;;
80179;SDS011;69505;52.134;5.438;2023-04-24T07:10:04;7.53;;;5.40;;
80179;SDS011;69505;52.134;5.438;2023-04-24T07:12:31;10.02;;;6.18;;
80179;SDS011;69505;52.134;5.438;2023-04-24T07:14:59;10.27;;;6.20;;
80179;SDS011;69505;52.134;5.438;2023-04-24T07:17:26;9.25;;;5.40;;
80179;SDS011;69505;52.134;5.438;2023-04-24T07:19:53;11.40;;;6.97;;
80179;SDS011;69505;52.134;5.438;2023-04-24T07:22:19;11.05;;;6.50;;
80179;SDS011;69505;52.134;5.438;2023-04-24T07:24:46;9.77;;;6.13;;
80179;SDS011;69505;52.134;5.438;2023-04-24T07:27:12;12.00;;;6.95;;
80179;SDS011;69505;52.134;5.438;2023-04-24T07:29:41;9.32;;;6.40;;
80179;SDS011;69505;52.134;5.438;2023-04-24T07:32:08;11.52;;;5.53;;
80179;SDS011;69505;52.134;5.438;2023-04-24T07:34:35;9.98;;;5.63;;
80179;SDS011;69505;52.134;5.438;2023-04-24T07:37:02;10.88;;;6.07;;
80179;SDS011;69505;52.134;5.438;2023-04-24T07:39:29;9.00;;;5.30;;
80179;SDS011;69505;52.134;5.438;2023-04-24T07:41:56;7.10;;;5.53;;
80179;SDS011;69505;52.134;5.438;2023-04-24T07:44:22;8.77;;;4.75;;
80179;SDS011;69505;52.134;5.438;2023-04-24T07:46:49;13.70;;;5.90;;
80179;SDS011;69505;52.134;5.438;2023-04-24T07:49:16;10.10;;;5.72;;
80179;SDS011;69505;52.134;5.438;2023-04-24T07:51:45;9.93;;;5.65;;
80179;SDS011;69505;52.134;5.438;2023-04-24T07:54:11;11.50;;;5.38;;
80179;SDS011;69505;52.134;5.438;2023-04-24T07:56:38;8.70;;;5.38;;
80179;SDS011;69505;52.134;5.438;2023-04-24T07:59:05;11.27;;;5.28;;
80179;SDS011;69505;52.134;5.438;2023-04-24T08:01:32;9.93;;;5.10;;
80179;SDS011;69505;52.134;5.438;2023-04-24T08:03:58;11.40;;;6.50;;
80179;SDS011;69505;52.134;5.438;2023-04-24T08:06:26;8.85;;;5.28;;
80179;SDS011;69505;52.134;5.438;2023-04-24T08:08:56;10.82;;;6.50;;
80179;SDS011;69505;52.134;5.438;2023-04-24T08:11:24;6.10;;;4.88;;
80179;SDS011;69505;52.134;5.438;2023-04-24T08:13:51;12.02;;;5.55;;
80179;SDS011;69505;52.134;5.438;2023-04-24T08:16:17;8.13;;;4.45;;
80179;SDS011;69505;52.134;5.438;2023-04-24T08:18:44;9.02;;;3.63;;
80179;SDS011;69505;52.134;5.438;2023-04-24T08:21:11;10.07;;;4.32;;
80179;SDS011;69505;52.134;5.438;2023-04-24T08:23:39;11.27;;;3.65;;
80179;SDS011;69505;52.134;5.438;2023-04-24T08:26:05;12.52;;;4.38;;
80179;SDS011;69505;52.134;5.438;2023-04-24T08:28:33;6.47;;;3.58;;
80179;SDS011;69505;52.134;5.438;2023-04-24T08:31:00;7.97;;;3.30;;
80179;SDS011;69505;52.134;5.438;2023-04-24T08:33:26;7.97;;;2.92;;
80179;SDS011;69505;52.134;5.438;2023-04-24T08:35:53;8.98;;;3.13;;
80179;SDS011;69505;52.134;5.438;2023-04-24T08:38:19;6.72;;;3.03;;
80179;SDS011;69505;52.134;5.438;2023-04-24T08:40:46;4.95;;;1.77;;
80179;SDS011;69505;52.134;5.438;2023-04-24T08:45:42;5.47;;;2.65;;
80179;SDS011;69505;52.134;5.438;2023-04-24T08:48:09;10.75;;;3.58;;
80179;SDS011;69505;52.134;5.438;2023-04-24T08:50:52;11.40;;;3.60;;
80179;SDS011;69505;52.134;5.438;2023-04-24T08:53:19;8.75;;;3.30;;
80179;SDS011;69505;52.134;5.438;2023-04-24T08:55:46;8.93;;;2.90;;
80179;SDS011;69505;52.134;5.438;2023-04-24T08:58:15;9.52;;;3.15;;
80179;SDS011;69505;52.134;5.438;2023-04-24T09:00:42;7.20;;;2.47;;
80179;SDS011;69505;52.134;5.438;2023-04-24T09:03:13;7.40;;;2.28;;
80179;SDS011;69505;52.134;5.438;2023-04-24T09:05:43;7.90;;;3.22;;
80179;SDS011;69505;52.134;5.438;2023-04-24T09:08:16;6.13;;;2.45;;
80179;SDS011;69505;52.134;5.438;2023-04-24T09:10:44;8.45;;;2.45;;
80179;SDS011;69505;52.134;5.438;2023-04-24T09:13:11;7.30;;;1.80;;
80179;SDS011;69505;52.134;5.438;2023-04-24T09:15:38;8.85;;;2.65;;
80179;SDS011;69505;52.134;5.438;2023-04-24T09:18:06;7.20;;;2.80;;
80179;SDS011;69505;52.134;5.438;2023-04-24T09:20:33;4.55;;;2.33;;
80179;SDS011;69505;52.134;5.438;2023-04-24T09:23:02;4.15;;;1.48;;
80179;SDS011;69505;52.134;5.438;2023-04-24T09:25:32;8.40;;;2.72;;
80179;SDS011;69505;52.134;5.438;2023-04-24T09:28:00;10.18;;;3.08;;
80179;SDS011;69505;52.134;5.438;2023-04-24T09:30:29;8.38;;;2.70;;
80179;SDS011;69505;52.134;5.438;2023-04-24T09:33:14;5.43;;;2.22;;
80179;SDS011;69505;52.134;5.438;2023-04-24T09:35:42;9.57;;;2.47;;
80179;SDS011;69505;52.134;5.438;2023-04-24T09:38:14;7.20;;;1.95;;
80179;SDS011;69505;52.134;5.438;2023-04-24T09:40:41;6.38;;;2.55;;
80179;SDS011;69505;52.134;5.438;2023-04-24T09:43:10;6.43;;;2.28;;
80179;SDS011;69505;52.134;5.438;2023-04-24T09:45:38;6.22;;;1.35;;
80179;SDS011;69505;52.134;5.438;2023-04-24T09:48:09;6.90;;;2.22;;
80179;SDS011;69505;52.134;5.438;2023-04-24T09:50:36;4.68;;;2.33;;
80179;SDS011;69505;52.134;5.438;2023-04-24T09:53:04;7.88;;;2.55;;
80179;SDS011;69505;52.134;5.438;2023-04-24T09:55:32;5.80;;;2.20;;
80179;SDS011;69505;52.134;5.438;2023-04-24T09:57:59;7.82;;;2.72;;
80179;SDS011;69505;52.134;5.438;2023-04-24T10:00:27;6.13;;;2.58;;
80179;SDS011;69505;52.134;5.438;2023-04-24T10:05:23;7.38;;;1.10;;
80179;SDS011;69505;52.134;5.438;2023-04-24T10:07:55;6.93;;;2.65;;
80179;SDS011;69505;52.134;5.438;2023-04-24T10:10:23;5.63;;;2.10;;
80179;SDS011;69505;52.134;5.438;2023-04-24T10:12:50;6.60;;;2.30;;
80179;SDS011;69505;52.134;5.438;2023-04-24T10:15:17;5.50;;;2.35;;
80179;SDS011;69505;52.134;5.438;2023-04-24T10:17:48;8.25;;;2.42;;
80179;SDS011;69505;52.134;5.438;2023-04-24T10:20:22;5.80;;;1.95;;
80179;SDS011;69505;52.134;5.438;2023-04-24T10:22:52;6.22;;;2.17;;
80179;SDS011;69505;52.134;5.438;2023-04-24T10:25:21;4.30;;;1.05;;
80179;SDS011;69505;52.134;5.438;2023-04-24T10:30:16;9.15;;;1.63;;
80179;SDS011;69505;52.134;5.438;2023-04-24T10:32:44;4.95;;;1.60;;
80179;SDS011;69505;52.134;5.438;2023-04-24T10:35:12;3.22;;;1.77;;
80179;SDS011;69505;52.134;5.438;2023-04-24T10:37:45;2.92;;;0.80;;
80179;SDS011;69505;52.134;5.438;2023-04-24T10:40:18;3.30;;;0.68;;
80179;SDS011;69505;52.134;5.438;2023-04-24T10:42:51;4.93;;;1.63;;
80179;SDS011;69505;52.134;5.438;2023-04-24T10:45:24;2.92;;;1.48;;
80179;SDS011;69505;52.134;5.438;2023-04-24T10:47:52;4.05;;;1.83;;
80179;SDS011;69505;52.134;5.438;2023-04-24T10:50:18;4.15;;;1.27;;
80179;SDS011;69505;52.134;5.438;2023-04-24T10:52:46;1.90;;;0.60;;
80179;SDS011;69505;52.134;5.438;2023-04-24T10:55:14;2.90;;;1.50;;
80179;SDS011;69505;52.134;5.438;2023-04-24T10:58:02;2.33;;;1.17;;
80179;SDS011;69505;52.134;5.438;2023-04-24T11:00:30;2.60;;;1.75;;
80179;SDS011;69505;52.134;5.438;2023-04-24T11:02:57;4.05;;;1.40;;
80179;SDS011;69505;52.134;5.438;2023-04-24T11:05:49;3.20;;;1.55;;
80179;SDS011;69505;52.134;5.438;2023-04-24T11:08:21;4.07;;;1.65;;
80179;SDS011;69505;52.134;5.438;2023-04-24T11:13:25;4.82;;;1.52;;
80179;SDS011;69505;52.134;5.438;2023-04-24T11:16:15;2.25;;;1.38;;
80179;SDS011;69505;52.134;5.438;2023-04-24T11:18:41;3.70;;;1.70;;
80179;SDS011;69505;52.134;5.438;2023-04-24T11:21:12;5.82;;;1.60;;
80179;SDS011;69505;52.134;5.438;2023-04-24T11:23:39;3.15;;;1.70;;
80179;SDS011;69505;52.134;5.438;2023-04-24T11:26:17;5.70;;;1.83;;
80179;SDS011;69505;52.134;5.438;2023-04-24T11:28:46;2.67;;;1.30;;
80179;SDS011;69505;52.134;5.438;2023-04-24T11:34:08;4.57;;;1.70;;
80179;SDS011;69505;52.134;5.438;2023-04-24T11:36:42;7.93;;;2.00;;
80179;SDS011;69505;52.134;5.438;2023-04-24T11:39:09;2.70;;;1.35;;
80179;SDS011;69505;52.134;5.438;2023-04-24T11:41:37;5.68;;;2.10;;
80179;SDS011;69505;52.134;5.438;2023-04-24T11:44:05;2.40;;;0.60;;
80179;SDS011;69505;52.134;5.438;2023-04-24T11:48:59;3.38;;;0.68;;
80179;SDS011;69505;52.134;5.438;2023-04-24T11:51:27;4.97;;;1.67;;
80179;SDS011;69505;52.134;5.438;2023-04-24T11:54:01;3.08;;;1.70;;
80179;SDS011;69505;52.134;5.438;2023-04-24T11:56:29;1.85;;;1.35;;
80179;SDS011;69505;52.134;5.438;2023-04-24T11:58:56;3.85;;;0.80;;
80179;SDS011;69505;52.134;5.438;2023-04-24T12:01:23;3.17;;;1.15;;
80179;SDS011;69505;52.134;5.438;2023-04-24T12:03:50;1.10;;;0.55;;
80179;SDS011;69505;52.134;5.438;2023-04-24T12:06:21;1.90;;;0.95;;
80179;SDS011;69505;52.134;5.438;2023-04-24T12:08:48;4.28;;;1.40;;
80179;SDS011;69505;52.134;5.438;2023-04-24T12:11:15;2.72;;;1.13;;
80179;SDS011;69505;52.134;5.438;2023-04-24T12:13:44;0.55;;;0.35;;
80179;SDS011;69505;52.134;5.438;2023-04-24T12:16:11;3.42;;;1.60;;
80179;SDS011;69505;52.134;5.438;2023-04-24T12:18:41;2.45;;;1.15;;
80179;SDS011;69505;52.134;5.438;2023-04-24T12:21:15;2.58;;;1.88;;
80179;SDS011;69505;52.134;5.438;2023-04-24T12:23:46;4.68;;;1.63;;
80179;SDS011;69505;52.134;5.438;2023-04-24T12:26:19;4.88;;;1.70;;
80179;SDS011;69505;52.134;5.438;2023-04-24T12:28:47;4.55;;;1.88;;
80179;SDS011;69505;52.134;5.438;2023-04-24T12:31:17;5.78;;;0.68;;
80179;SDS011;69505;52.134;5.438;2023-04-24T12:33:47;6.82;;;1.63;;
80179;SDS011;69505;52.134;5.438;2023-04-24T12:36:13;4.60;;;1.50;;
80179;SDS011;69505;52.134;5.438;2023-04-24T12:38:43;4.93;;;1.55;;
80179;SDS011;69505;52.134;5.438;2023-04-24T12:41:13;4.03;;;1.65;;
80179;SDS011;69505;52.134;5.438;2023-04-24T12:43:50;4.03;;;1.20;;
80179;SDS011;69505;52.134;5.438;2023-04-24T12:46:21;3.10;;;0.43;;
80179;SDS011;69505;52.134;5.438;2023-04-24T12:48:48;4.20;;;1.02;;
80179;SDS011;69505;52.134;5.438;2023-04-24T12:51:14;4.35;;;0.70;;
80179;SDS011;69505;52.134;5.438;2023-04-24T12:53:41;4.78;;;1.05;;
80179;SDS011;69505;52.134;5.438;2023-04-24T12:56:08;3.85;;;1.77;;
80179;SDS011;69505;52.134;5.438;2023-04-24T12:58:34;5.93;;;1.70;;
80179;SDS011;69505;52.134;5.438;2023-04-24T13:01:01;6.63;;;1.02;;
80179;SDS011;69505;52.134;5.438;2023-04-24T13:03:28;5.90;;;1.92;;
80179;SDS011;69505;52.134;5.438;2023-04-24T13:05:54;6.40;;;2.08;;
80179;SDS011;69505;52.134;5.438;2023-04-24T13:08:21;6.15;;;1.98;;
80179;SDS011;69505;52.134;5.438;2023-04-24T13:10:47;8.00;;;2.17;;
80179;SDS011;69505;52.134;5.438;2023-04-24T13:13:14;5.97;;;2.03;;
80179;SDS011;69505;52.134;5.438;2023-04-24T13:15:41;6.55;;;2.50;;
80179;SDS011;69505;52.134;5.438;2023-04-24T13:18:07;3.75;;;1.73;;
80179;SDS011;69505;52.134;5.438;2023-04-24T13:20:34;9.20;;;0.80;;
80179;SDS011;69505;52.134;5.438;2023-04-24T13:23:01;6.60;;;1.63;;
80179;SDS011;69505;52.134;5.438;2023-04-24T13:25:30;10.30;;;3.10;;
80179;SDS011;69505;52.134;5.438;2023-04-24T13:28:01;9.05;;;2.22;;
80179;SDS011;69505;52.134;5.438;2023-04-24T13:30:27;7.00;;;2.35;;
80179;SDS011;69505;52.134;5.438;2023-04-24T13:32:54;6.13;;;2.45;;
80179;SDS011;69505;52.134;5.438;2023-04-24T13:35:20;5.80;;;1.38;;
80179;SDS011;69505;52.134;5.438;2023-04-24T13:37:47;9.73;;;3.17;;
80179;SDS011;69505;52.134;5.438;2023-04-24T13:40:16;6.82;;;2.42;;
80179;SDS011;69505;52.134;5.438;2023-04-24T13:42:43;8.05;;;1.55;;
80179;SDS011;69505;52.134;5.438;2023-04-24T13:45:09;8.25;;;1.23;;
80179;SDS011;69505;52.134;5.438;2023-04-24T13:47:50;8.13;;;2.60;;
80179;SDS011;69505;52.134;5.438;2023-04-24T13:50:17;7.18;;;2.00;;
80179;SDS011;69505;52.134;5.438;2023-04-24T13:52:44;9.30;;;2.63;;
80179;SDS011;69505;52.134;5.438;2023-04-24T13:55:11;4.78;;;2.17;;
80179;SDS011;69505;52.134;5.438;2023-04-24T13:57:37;6.20;;;2.53;;
80179;SDS011;69505;52.134;5.438;2023-04-24T14:00:04;7.30;;;2.35;;
80179;SDS011;69505;52.134;5.438;2023-04-24T14:02:36;5.38;;;2.05;;
80179;SDS011;69505;52.134;5.438;2023-04-24T14:05:03;5.25;;;1.48;;
80179;SDS011;69505;52.134;5.438;2023-04-24T14:07:30;4.40;;;1.90;;
80179;SDS011;69505;52.134;5.438;2023-04-24T14:09:58;8.18;;;2.35;;
80179;SDS011;69505;52.134;5.438;2023-04-24T14:12:24;6.80;;;2.47;;
80179;SDS011;69505;52.134;5.438;2023-04-24T14:14:52;7.93;;;2.65;;
80179;SDS011;69505;52.134;5.438;2023-04-24T14:17:18;8.07;;;1.45;;
80179;SDS011;69505;52.134;5.438;2023-04-24T14:19:45;6.60;;;2.78;;
80179;SDS011;69505;52.134;5.438;2023-04-24T14:22:11;5.55;;;1.90;;
80179;SDS011;69505;52.134;5.438;2023-04-24T14:24:38;6.95;;;2.50;;
80179;SDS011;69505;52.134;5.438;2023-04-24T14:27:04;7.82;;;2.58;;
80179;SDS011;69505;52.134;5.438;2023-04-24T14:29:31;7.97;;;1.30;;
80179;SDS011;69505;52.134;5.438;2023-04-24T14:34:27;6.18;;;1.58;;
80179;SDS011;69505;52.134;5.438;2023-04-24T14:36:53;7.22;;;1.85;;
80179;SDS011;69505;52.134;5.438;2023-04-24T14:39:20;6.20;;;2.75;;
80179;SDS011;69505;52.134;5.438;2023-04-24T14:41:47;8.73;;;1.50;;
80179;SDS011;69505;52.134;5.438;2023-04-24T14:44:13;6.65;;;2.17;;
80179;SDS011;69505;52.134;5.438;2023-04-24T14:46:40;6.68;;;2.70;;
80179;SDS011;69505;52.134;5.438;2023-04-24T14:49:08;6.97;;;2.38;;
80179;SDS011;69505;52.134;5.438;2023-04-24T14:51:36;11.68;;;2.95;;
80179;SDS011;69505;52.134;5.438;2023-04-24T14:54:02;8.30;;;3.08;;
80179;SDS011;69505;52.134;5.438;2023-04-24T14:56:29;9.35;;;2.92;;
80179;SDS011;69505;52.134;5.438;2023-04-24T14:58:56;9.55;;;2.33;;
80179;SDS011;69505;52.134;5.438;2023-04-24T15:01:22;9.73;;;2.60;;
80179;SDS011;69505;52.134;5.438;2023-04-24T15:03:50;7.05;;;2.90;;
80179;SDS011;69505;52.134;5.438;2023-04-24T15:06:17;6.55;;;2.58;;
80179;SDS011;69505;52.134;5.438;2023-04-24T15:08:44;7.57;;;2.60;;
80179;SDS011;69505;52.134;5.438;2023-04-24T15:11:13;5.20;;;2.30;;